EAG21C EGFF-EGAC
Flight info
| Callsign | EAG21C |
|---|---|
| Flight time | 1h 7m |
| Altitude | 20000 |
| Route | BCN P69 DIZIM N864 WAL M146 ERDUV Z198 MASOP M148 MAGEE |
| Aircraft | AT76/M-SDFGIRY/S |
Departure
| Time | 2026-04-21 18:55 |
|---|---|
| Airport | Cardiff International Airport (EGFF) |
Arrival
| Time | 2026-04-21 20:02 |
|---|---|
| Airport | George Best Belfast City Airport (EGAC) |
| Time | Latitude | Longitude | Altitude | Speed | Heading |
|---|---|---|---|---|---|
| 2026-04-21 18:55 | 51.35880 | -3.22085 | 4357 ft | 150 kts | 113° |
| 2026-04-21 18:55 | 51.35711 | -3.19985 | 4906 ft | 154 kts | 63° |
| 2026-04-21 18:55 | 51.36682 | -3.19096 | 5255 ft | 180 kts | 12° |
| 2026-04-21 18:55 | 51.37924 | -3.19616 | 5588 ft | 194 kts | 343° |
| 2026-04-21 18:56 | 51.39181 | -3.20457 | 5971 ft | 196 kts | 346° |
| 2026-04-21 18:56 | 51.40469 | -3.21182 | 6383 ft | 196 kts | 350° |
| 2026-04-21 18:56 | 51.41790 | -3.21752 | 6774 ft | 195 kts | 355° |
| 2026-04-21 18:56 | 51.43124 | -3.22153 | 7172 ft | 194 kts | 359° |
| 2026-04-21 18:57 | 51.44448 | -3.22403 | 7572 ft | 194 kts | 2° |
| 2026-04-21 18:57 | 51.45796 | -3.22576 | 7996 ft | 194 kts | 2° |
| 2026-04-21 18:57 | 51.47146 | -3.22754 | 8376 ft | 194 kts | 2° |
| 2026-04-21 18:57 | 51.48498 | -3.22939 | 8752 ft | 195 kts | 2° |
| 2026-04-21 18:58 | 51.49839 | -3.23126 | 9118 ft | 196 kts | 2° |
| 2026-04-21 18:58 | 51.51203 | -3.23302 | 9497 ft | 196 kts | 2° |
| 2026-04-21 18:58 | 51.52573 | -3.23476 | 9852 ft | 197 kts | 1° |
| 2026-04-21 18:58 | 51.53953 | -3.23642 | 10168 ft | 200 kts | 1° |
| 2026-04-21 18:59 | 51.55345 | -3.23822 | 10484 ft | 201 kts | 2° |
| 2026-04-21 18:59 | 51.56726 | -3.24026 | 10805 ft | 201 kts | 359° |
| 2026-04-21 18:59 | 51.58126 | -3.24219 | 11141 ft | 201 kts | 359° |
| 2026-04-21 18:59 | 51.59526 | -3.24414 | 11458 ft | 202 kts | 358° |
| 2026-04-21 19:00 | 51.60935 | -3.24632 | 11771 ft | 202 kts | 359° |
| 2026-04-21 19:00 | 51.62323 | -3.24832 | 12196 ft | 202 kts | 1° |
| 2026-04-21 19:00 | 51.63722 | -3.25029 | 12531 ft | 202 kts | 359° |
| 2026-04-21 19:00 | 51.65133 | -3.25216 | 12831 ft | 203 kts | 358° |
| 2026-04-21 19:01 | 51.66538 | -3.25415 | 13160 ft | 202 kts | 358° |
| 2026-04-21 19:01 | 51.67928 | -3.25629 | 13477 ft | 202 kts | 358° |
| 2026-04-21 19:01 | 51.69331 | -3.25841 | 13797 ft | 202 kts | 357° |
| 2026-04-21 19:01 | 51.70737 | -3.26037 | 14111 ft | 202 kts | 356° |
| 2026-04-21 19:02 | 51.72150 | -3.26230 | 14325 ft | 204 kts | 356° |
| 2026-04-21 19:02 | 51.73535 | -3.26267 | 14573 ft | 202 kts | 8° |
| 2026-04-21 19:02 | 51.74918 | -3.25895 | 14884 ft | 199 kts | 12° |
| 2026-04-21 19:02 | 51.76294 | -3.25456 | 15071 ft | 201 kts | 11° |
| 2026-04-21 19:03 | 51.77672 | -3.25038 | 15281 ft | 204 kts | 10° |
| 2026-04-21 19:03 | 51.79083 | -3.24657 | 15521 ft | 206 kts | 9° |
| 2026-04-21 19:03 | 51.80492 | -3.24303 | 15796 ft | 203 kts | 9° |
| 2026-04-21 19:03 | 51.81897 | -3.23948 | 16020 ft | 204 kts | 8° |
| 2026-04-21 19:04 | 51.83321 | -3.23604 | 16194 ft | 208 kts | 8° |
| 2026-04-21 19:04 | 51.84739 | -3.23256 | 16458 ft | 207 kts | 7° |
| 2026-04-21 19:04 | 51.86138 | -3.22911 | 16709 ft | 205 kts | 7° |
| 2026-04-21 19:04 | 51.87554 | -3.22561 | 16946 ft | 205 kts | 7° |
| 2026-04-21 19:05 | 51.88982 | -3.22219 | 17068 ft | 210 kts | 6° |
| 2026-04-21 19:05 | 51.90410 | -3.21869 | 17305 ft | 208 kts | 7° |
| 2026-04-21 19:05 | 51.91827 | -3.21507 | 17536 ft | 206 kts | 6° |
| 2026-04-21 19:05 | 51.93252 | -3.21165 | 17723 ft | 207 kts | 6° |
| 2026-04-21 19:06 | 51.94697 | -3.20828 | 17868 ft | 210 kts | 4° |
| 2026-04-21 19:06 | 51.96133 | -3.20484 | 18167 ft | 206 kts | 5° |
| 2026-04-21 19:06 | 51.97549 | -3.20136 | 18257 ft | 211 kts | 5° |
| 2026-04-21 19:06 | 51.99025 | -3.19780 | 18287 ft | 218 kts | 6° |
| 2026-04-21 19:07 | 52.00550 | -3.19421 | 18303 ft | 224 kts | 4° |
| 2026-04-21 19:07 | 52.02120 | -3.19028 | 18309 ft | 231 kts | 5° |
| 2026-04-21 19:07 | 52.03729 | -3.18627 | 18292 ft | 236 kts | 5° |
| 2026-04-21 19:07 | 52.05357 | -3.18308 | 18301 ft | 240 kts | 2° |
| 2026-04-21 19:08 | 52.07037 | -3.18191 | 18300 ft | 242 kts | 360° |
| 2026-04-21 19:08 | 52.08727 | -3.18131 | 18299 ft | 243 kts | 358° |
| 2026-04-21 19:08 | 52.10431 | -3.18084 | 18300 ft | 244 kts | 358° |
| 2026-04-21 19:08 | 52.12116 | -3.18061 | 18304 ft | 246 kts | 358° |
| 2026-04-21 19:09 | 52.13835 | -3.18037 | 18304 ft | 247 kts | 358° |
| 2026-04-21 19:09 | 52.15538 | -3.17824 | 18313 ft | 249 kts | 3° |
| 2026-04-21 19:09 | 52.17279 | -3.17550 | 18310 ft | 249 kts | 3° |
| 2026-04-21 19:09 | 52.19018 | -3.17347 | 18312 ft | 249 kts | 0° |
| 2026-04-21 19:10 | 52.20756 | -3.17200 | 18312 ft | 250 kts | 359° |
| 2026-04-21 19:10 | 52.22473 | -3.17074 | 18311 ft | 250 kts | 0° |
| 2026-04-21 19:10 | 52.24210 | -3.16965 | 18324 ft | 250 kts | 0° |
| 2026-04-21 19:10 | 52.25962 | -3.16864 | 18322 ft | 251 kts | 1° |
| 2026-04-21 19:11 | 52.27714 | -3.16741 | 18317 ft | 252 kts | 0° |
| 2026-04-21 19:11 | 52.29475 | -3.16612 | 18319 ft | 253 kts | 360° |
| 2026-04-21 19:11 | 52.30650 | -3.16523 | 18325 ft | 254 kts | 360° |
| 2026-04-21 19:11 | 52.32995 | -3.16343 | 18324 ft | 254 kts | 1° |
| 2026-04-21 19:12 | 52.34167 | -3.16243 | 18331 ft | 254 kts | 0° |
| 2026-04-21 19:12 | 52.35938 | -3.16093 | 18331 ft | 254 kts | 0° |
| 2026-04-21 19:12 | 52.37710 | -3.15955 | 18332 ft | 255 kts | 1° |
| 2026-04-21 19:12 | 52.39488 | -3.15806 | 18331 ft | 255 kts | 0° |
| 2026-04-21 19:13 | 52.41268 | -3.15655 | 18330 ft | 256 kts | 1° |
| 2026-04-21 19:13 | 52.43029 | -3.15508 | 18331 ft | 256 kts | 1° |
| 2026-04-21 19:13 | 52.44807 | -3.15367 | 18342 ft | 256 kts | 0° |
| 2026-04-21 19:13 | 52.46589 | -3.15220 | 18338 ft | 256 kts | 0° |
| 2026-04-21 19:14 | 52.48371 | -3.15082 | 18342 ft | 256 kts | 1° |
| 2026-04-21 19:14 | 52.50154 | -3.14990 | 18342 ft | 257 kts | 1° |
| 2026-04-21 19:14 | 52.51928 | -3.14880 | 18342 ft | 258 kts | 2° |
| 2026-04-21 19:14 | 52.53731 | -3.14744 | 18346 ft | 259 kts | 2° |
| 2026-04-21 19:15 | 52.55538 | -3.14603 | 18345 ft | 260 kts | 2° |
| 2026-04-21 19:15 | 52.57354 | -3.14460 | 18348 ft | 260 kts | 2° |
| 2026-04-21 19:15 | 52.59168 | -3.14317 | 18346 ft | 261 kts | 2° |
| 2026-04-21 19:15 | 52.60983 | -3.14181 | 18347 ft | 261 kts | 2° |
| 2026-04-21 19:16 | 52.62779 | -3.14048 | 18350 ft | 261 kts | 2° |
| 2026-04-21 19:16 | 52.64605 | -3.13898 | 18350 ft | 262 kts | 2° |
| 2026-04-21 19:16 | 52.66423 | -3.13745 | 18352 ft | 262 kts | 2° |
| 2026-04-21 19:16 | 52.68250 | -3.13604 | 18351 ft | 262 kts | 2° |
| 2026-04-21 19:17 | 52.71883 | -3.13323 | 18351 ft | 262 kts | 1° |
| 2026-04-21 19:17 | 52.73696 | -3.13518 | 18352 ft | 262 kts | 352° |
| 2026-04-21 19:17 | 52.75501 | -3.14024 | 18353 ft | 262 kts | 351° |
| 2026-04-21 19:18 | 52.77287 | -3.14548 | 18354 ft | 263 kts | 351° |
| 2026-04-21 19:18 | 52.79105 | -3.15044 | 18359 ft | 264 kts | 352° |
| 2026-04-21 19:18 | 52.80913 | -3.15482 | 18354 ft | 265 kts | 353° |
| 2026-04-21 19:18 | 52.82747 | -3.15909 | 18360 ft | 266 kts | 353° |
| 2026-04-21 19:19 | 52.84581 | -3.16336 | 18360 ft | 266 kts | 353° |
| 2026-04-21 19:19 | 52.86409 | -3.16771 | 18361 ft | 267 kts | 353° |
| 2026-04-21 19:19 | 52.88255 | -3.17202 | 18362 ft | 267 kts | 353° |
| 2026-04-21 19:19 | 52.90096 | -3.17552 | 18361 ft | 265 kts | 360° |
| 2026-04-21 19:20 | 52.91920 | -3.17423 | 18367 ft | 266 kts | 5° |
| 2026-04-21 19:20 | 52.93764 | -3.17158 | 18366 ft | 266 kts | 6° |
| 2026-04-21 19:20 | 52.95614 | -3.16900 | 18367 ft | 266 kts | 5° |
| 2026-04-21 19:20 | 52.97474 | -3.16712 | 18363 ft | 267 kts | 6° |
| 2026-04-21 19:21 | 52.99335 | -3.16612 | 18371 ft | 268 kts | 4° |
| 2026-04-21 19:21 | 53.01207 | -3.16495 | 18364 ft | 268 kts | 6° |
| 2026-04-21 19:21 | 53.03057 | -3.16341 | 18376 ft | 269 kts | 5° |
| 2026-04-21 19:21 | 53.04936 | -3.16177 | 18375 ft | 270 kts | 6° |
| 2026-04-21 19:22 | 53.06804 | -3.16073 | 18369 ft | 271 kts | 0° |
| 2026-04-21 19:22 | 53.08598 | -3.17017 | 18374 ft | 275 kts | 330° |
| 2026-04-21 19:22 | 53.10164 | -3.18835 | 18375 ft | 275 kts | 325° |
| 2026-04-21 19:22 | 53.11747 | -3.20645 | 18380 ft | 275 kts | 328° |
| 2026-04-21 19:23 | 53.13412 | -3.22232 | 18382 ft | 276 kts | 335° |
| 2026-04-21 19:23 | 53.15138 | -3.23563 | 18369 ft | 277 kts | 339° |
| 2026-04-21 19:23 | 53.16914 | -3.24850 | 18369 ft | 278 kts | 339° |
| 2026-04-21 19:23 | 53.18697 | -3.26134 | 18373 ft | 279 kts | 338° |
| 2026-04-21 19:24 | 53.20450 | -3.27448 | 18366 ft | 278 kts | 337° |
| 2026-04-21 19:24 | 53.22203 | -3.28823 | 18366 ft | 279 kts | 337° |
| 2026-04-21 19:24 | 53.23963 | -3.30201 | 18367 ft | 279 kts | 337° |
| 2026-04-21 19:24 | 53.25735 | -3.31589 | 18375 ft | 280 kts | 338° |
| 2026-04-21 19:25 | 53.27506 | -3.32968 | 18372 ft | 280 kts | 337° |
| 2026-04-21 19:25 | 53.29256 | -3.34324 | 18374 ft | 280 kts | 336° |
| 2026-04-21 19:25 | 53.31038 | -3.35691 | 18371 ft | 280 kts | 337° |
| 2026-04-21 19:25 | 53.32793 | -3.37036 | 18372 ft | 280 kts | 337° |
| 2026-04-21 19:26 | 53.34566 | -3.38407 | 18370 ft | 280 kts | 338° |
| 2026-04-21 19:26 | 53.36344 | -3.39779 | 18371 ft | 280 kts | 336° |
| 2026-04-21 19:26 | 53.38103 | -3.41161 | 18371 ft | 280 kts | 336° |
| 2026-04-21 19:26 | 53.39872 | -3.42545 | 18371 ft | 280 kts | 336° |
| 2026-04-21 19:27 | 53.41644 | -3.43930 | 18375 ft | 280 kts | 336° |
| 2026-04-21 19:27 | 53.43408 | -3.45311 | 18376 ft | 280 kts | 338° |
| 2026-04-21 19:27 | 53.45158 | -3.46697 | 18376 ft | 281 kts | 337° |
| 2026-04-21 19:27 | 53.46928 | -3.48085 | 18376 ft | 281 kts | 337° |
| 2026-04-21 19:28 | 53.48698 | -3.49463 | 18377 ft | 280 kts | 337° |
| 2026-04-21 19:28 | 53.50468 | -3.50829 | 18380 ft | 280 kts | 338° |
| 2026-04-21 19:28 | 53.52234 | -3.52210 | 18377 ft | 280 kts | 336° |
| 2026-04-21 19:28 | 53.54002 | -3.53606 | 18378 ft | 281 kts | 338° |
| 2026-04-21 19:29 | 53.55774 | -3.54995 | 18379 ft | 280 kts | 338° |
| 2026-04-21 19:29 | 53.57542 | -3.56381 | 18380 ft | 280 kts | 336° |
| 2026-04-21 19:29 | 53.59309 | -3.57776 | 18378 ft | 280 kts | 336° |
| 2026-04-21 19:29 | 53.61070 | -3.59188 | 18380 ft | 280 kts | 336° |
| 2026-04-21 19:30 | 53.62818 | -3.60594 | 18382 ft | 281 kts | 336° |
| 2026-04-21 19:30 | 53.64568 | -3.62062 | 18379 ft | 280 kts | 329° |
| 2026-04-21 19:30 | 53.65989 | -3.64294 | 18388 ft | 281 kts | 309° |
| 2026-04-21 19:30 | 53.67130 | -3.66974 | 18385 ft | 279 kts | 303° |
| 2026-04-21 19:31 | 53.68168 | -3.69682 | 18387 ft | 278 kts | 302° |
| 2026-04-21 19:31 | 53.69221 | -3.72417 | 18383 ft | 278 kts | 303° |
| 2026-04-21 19:31 | 53.70310 | -3.75127 | 18379 ft | 280 kts | 304° |
| 2026-04-21 19:31 | 53.71439 | -3.77818 | 18382 ft | 281 kts | 305° |
| 2026-04-21 19:32 | 53.72574 | -3.80531 | 18385 ft | 281 kts | 305° |
| 2026-04-21 19:32 | 53.73685 | -3.83203 | 18385 ft | 281 kts | 305° |
| 2026-04-21 19:32 | 53.74809 | -3.85916 | 18384 ft | 281 kts | 305° |
| 2026-04-21 19:32 | 53.75937 | -3.88636 | 18383 ft | 282 kts | 305° |
| 2026-04-21 19:33 | 53.76691 | -3.90436 | 18378 ft | 283 kts | 305° |
| 2026-04-21 19:33 | 53.78217 | -3.94044 | 18390 ft | 285 kts | 306° |
| 2026-04-21 19:33 | 53.79372 | -3.96773 | 18390 ft | 285 kts | 305° |
| 2026-04-21 19:33 | 53.80509 | -3.99519 | 18383 ft | 284 kts | 304° |
| 2026-04-21 19:34 | 53.81644 | -4.02261 | 18388 ft | 285 kts | 305° |
| 2026-04-21 19:34 | 53.82773 | -4.05013 | 18386 ft | 285 kts | 304° |
| 2026-04-21 19:34 | 53.83915 | -4.07775 | 18386 ft | 286 kts | 305° |
| 2026-04-21 19:34 | 53.85052 | -4.10526 | 18387 ft | 287 kts | 304° |
| 2026-04-21 19:35 | 53.86203 | -4.13321 | 18385 ft | 288 kts | 304° |
| 2026-04-21 19:35 | 53.88997 | -4.17920 | 18394 ft | 283 kts | 334° |
| 2026-04-21 19:35 | 53.90799 | -4.19240 | 18397 ft | 282 kts | 342° |
| 2026-04-21 19:36 | 53.92658 | -4.20312 | 18390 ft | 281 kts | 343° |
| 2026-04-21 19:36 | 53.94512 | -4.21404 | 18390 ft | 282 kts | 343° |
| 2026-04-21 19:36 | 53.96354 | -4.22578 | 18391 ft | 283 kts | 341° |
| 2026-04-21 19:36 | 53.98187 | -4.23788 | 18392 ft | 283 kts | 341° |
| 2026-04-21 19:37 | 53.99999 | -4.24997 | 18392 ft | 282 kts | 340° |
| 2026-04-21 19:37 | 54.01825 | -4.26217 | 18392 ft | 282 kts | 341° |
| 2026-04-21 19:37 | 54.03661 | -4.27460 | 18394 ft | 282 kts | 341° |
| 2026-04-21 19:37 | 54.05487 | -4.28705 | 18396 ft | 283 kts | 341° |
| 2026-04-21 19:38 | 54.07295 | -4.29933 | 18399 ft | 283 kts | 341° |
| 2026-04-21 19:38 | 54.09126 | -4.31151 | 18398 ft | 282 kts | 341° |
| 2026-04-21 19:38 | 54.10344 | -4.31954 | 18398 ft | 282 kts | 341° |
| 2026-04-21 19:38 | 54.12801 | -4.33590 | 18396 ft | 282 kts | 341° |
| 2026-04-21 19:39 | 54.14606 | -4.34821 | 18392 ft | 282 kts | 338° |
| 2026-04-21 19:39 | 54.16199 | -4.36797 | 18391 ft | 283 kts | 315° |
| 2026-04-21 19:39 | 54.17429 | -4.39420 | 18395 ft | 283 kts | 304° |
| 2026-04-21 19:39 | 54.18515 | -4.42214 | 18404 ft | 283 kts | 302° |
| 2026-04-21 19:40 | 54.19575 | -4.45007 | 18398 ft | 283 kts | 303° |
| 2026-04-21 19:40 | 54.20663 | -4.47816 | 18394 ft | 284 kts | 304° |
| 2026-04-21 19:40 | 54.21791 | -4.50592 | 18393 ft | 284 kts | 305° |
| 2026-04-21 19:40 | 54.22929 | -4.53366 | 18395 ft | 285 kts | 305° |
| 2026-04-21 19:41 | 54.24070 | -4.56146 | 18388 ft | 285 kts | 305° |
| 2026-04-21 19:41 | 54.25217 | -4.58909 | 18388 ft | 285 kts | 305° |
| 2026-04-21 19:41 | 54.26351 | -4.61637 | 18393 ft | 284 kts | 305° |
| 2026-04-21 19:41 | 54.27496 | -4.64398 | 18394 ft | 285 kts | 305° |
| 2026-04-21 19:42 | 54.28636 | -4.67189 | 18397 ft | 285 kts | 304° |
| 2026-04-21 19:42 | 54.29771 | -4.69977 | 18402 ft | 285 kts | 304° |
| 2026-04-21 19:42 | 54.30902 | -4.72760 | 18402 ft | 285 kts | 304° |
| 2026-04-21 19:42 | 54.32021 | -4.75527 | 18399 ft | 284 kts | 304° |
| 2026-04-21 19:43 | 54.33155 | -4.78320 | 18404 ft | 285 kts | 304° |
| 2026-04-21 19:43 | 54.34288 | -4.81119 | 18407 ft | 286 kts | 304° |
| 2026-04-21 19:43 | 54.35419 | -4.83908 | 18218 ft | 293 kts | 304° |
| 2026-04-21 19:43 | 54.36611 | -4.86860 | 17775 ft | 307 kts | 304° |
| 2026-04-21 19:44 | 54.37853 | -4.89932 | 17335 ft | 318 kts | 305° |
| 2026-04-21 19:44 | 54.39130 | -4.93100 | 16888 ft | 326 kts | 305° |
| 2026-04-21 19:44 | 54.40436 | -4.96351 | 16420 ft | 333 kts | 305° |
| 2026-04-21 19:44 | 54.41722 | -4.99550 | 16126 ft | 314 kts | 306° |
| 2026-04-21 19:45 | 54.42891 | -5.02461 | 15805 ft | 279 kts | 306° |
| 2026-04-21 19:45 | 54.43862 | -5.05177 | 15404 ft | 259 kts | 290° |
| 2026-04-21 19:45 | 54.44213 | -5.08093 | 14952 ft | 242 kts | 274° |
| 2026-04-21 19:45 | 54.44289 | -5.10905 | 14512 ft | 237 kts | 269° |
| 2026-04-21 19:46 | 54.44293 | -5.13814 | 14062 ft | 248 kts | 269° |
| 2026-04-21 19:46 | 54.44301 | -5.16820 | 13616 ft | 253 kts | 270° |
| 2026-04-21 19:46 | 54.44351 | -5.19787 | 13231 ft | 242 kts | 271° |
| 2026-04-21 19:46 | 54.44418 | -5.22593 | 12905 ft | 230 kts | 271° |
| 2026-04-21 19:47 | 54.44482 | -5.25265 | 12600 ft | 222 kts | 271° |
| 2026-04-21 19:47 | 54.44541 | -5.27913 | 12305 ft | 225 kts | 271° |
| 2026-04-21 19:47 | 54.44608 | -5.30651 | 12009 ft | 232 kts | 271° |
| 2026-04-21 19:47 | 54.44674 | -5.33463 | 11696 ft | 238 kts | 271° |
| 2026-04-21 19:48 | 54.44738 | -5.36338 | 11403 ft | 242 kts | 271° |
| 2026-04-21 19:48 | 54.44808 | -5.39217 | 11099 ft | 246 kts | 271° |
| 2026-04-21 19:48 | 54.44887 | -5.42179 | 10780 ft | 249 kts | 271° |
| 2026-04-21 19:48 | 54.44964 | -5.45166 | 10469 ft | 251 kts | 270° |
| 2026-04-21 19:49 | 54.45038 | -5.48185 | 10132 ft | 253 kts | 270° |
| 2026-04-21 19:49 | 54.45115 | -5.51225 | 9783 ft | 255 kts | 270° |
| 2026-04-21 19:49 | 54.45186 | -5.54286 | 9416 ft | 257 kts | 270° |
| 2026-04-21 19:49 | 54.45250 | -5.57327 | 9050 ft | 258 kts | 270° |
| 2026-04-21 19:50 | 54.45296 | -5.59412 | 8796 ft | 258 kts | 270° |
| 2026-04-21 19:50 | 54.45381 | -5.63521 | 8321 ft | 259 kts | 270° |
| 2026-04-21 19:50 | 54.45444 | -5.66621 | 7974 ft | 259 kts | 271° |
| 2026-04-21 19:50 | 54.45505 | -5.69675 | 7614 ft | 254 kts | 271° |
| 2026-04-21 19:51 | 54.45563 | -5.72568 | 7288 ft | 231 kts | 270° |
| 2026-04-21 19:51 | 54.45612 | -5.75224 | 6988 ft | 214 kts | 270° |
| 2026-04-21 19:51 | 54.45662 | -5.77717 | 6715 ft | 202 kts | 270° |
| 2026-04-21 19:51 | 54.45704 | -5.80091 | 6411 ft | 197 kts | 269° |
| 2026-04-21 19:52 | 54.45744 | -5.82449 | 6137 ft | 197 kts | 269° |
| 2026-04-21 19:52 | 54.45464 | -5.84619 | 5877 ft | 183 kts | 228° |
| 2026-04-21 19:52 | 54.44671 | -5.86251 | 5650 ft | 176 kts | 221° |
| 2026-04-21 19:52 | 54.43868 | -5.87806 | 5419 ft | 175 kts | 220° |
| 2026-04-21 19:53 | 54.43052 | -5.89371 | 5198 ft | 178 kts | 219° |
| 2026-04-21 19:53 | 54.42158 | -5.91003 | 4980 ft | 196 kts | 219° |
| 2026-04-21 19:53 | 54.41185 | -5.92751 | 4703 ft | 208 kts | 219° |
| 2026-04-21 19:53 | 54.40198 | -5.94511 | 4236 ft | 201 kts | 219° |
| 2026-04-21 19:54 | 54.39283 | -5.96242 | 3867 ft | 191 kts | 229° |
| 2026-04-21 19:54 | 54.38904 | -5.98358 | 3768 ft | 184 kts | 263° |
| 2026-04-21 19:54 | 54.39179 | -6.00393 | 3652 ft | 172 kts | 313° |
| 2026-04-21 19:54 | 54.40142 | -6.01512 | 3550 ft | 165 kts | 351° |
| 2026-04-21 19:55 | 54.41178 | -6.02383 | 3503 ft | 170 kts | 336° |
| 2026-04-21 19:55 | 54.42230 | -6.03524 | 3489 ft | 184 kts | 335° |
| 2026-04-21 19:55 | 54.43329 | -6.04708 | 3502 ft | 189 kts | 335° |
| 2026-04-21 19:55 | 54.44442 | -6.05886 | 3483 ft | 187 kts | 336° |
| 2026-04-21 19:56 | 54.45551 | -6.06635 | 3404 ft | 157 kts | 11° |
| 2026-04-21 19:56 | 54.46426 | -6.05962 | 3349 ft | 129 kts | 50° |
| 2026-04-21 19:56 | 54.47136 | -6.04991 | 3324 ft | 132 kts | 49° |
| 2026-04-21 19:56 | 54.47849 | -6.03982 | 3304 ft | 134 kts | 50° |
| 2026-04-21 19:57 | 54.48591 | -6.02923 | 3108 ft | 145 kts | 48° |
| 2026-04-21 19:57 | 54.49439 | -6.01929 | 2907 ft | 153 kts | 43° |
| 2026-04-21 19:57 | 54.50325 | -6.00957 | 2683 ft | 142 kts | 44° |
| 2026-04-21 19:57 | 54.51089 | -6.00053 | 2536 ft | 124 kts | 45° |
| 2026-04-21 19:58 | 54.51772 | -5.99235 | 2349 ft | 115 kts | 47° |
| 2026-04-21 19:58 | 54.52411 | -5.98469 | 2198 ft | 110 kts | 48° |
| 2026-04-21 19:58 | 54.53021 | -5.97729 | 2058 ft | 106 kts | 47° |
| 2026-04-21 19:58 | 54.53626 | -5.97007 | 1898 ft | 105 kts | 47° |
| 2026-04-21 19:59 | 54.54210 | -5.96306 | 1751 ft | 103 kts | 46° |
| 2026-04-21 19:59 | 54.54797 | -5.95608 | 1601 ft | 103 kts | 45° |
| 2026-04-21 19:59 | 54.55197 | -5.95133 | 1516 ft | 107 kts | 46° |
| 2026-04-21 19:59 | 54.55822 | -5.94391 | 1385 ft | 111 kts | 44° |
| 2026-04-21 20:00 | 54.56470 | -5.93594 | 1201 ft | 116 kts | 43° |
| 2026-04-21 20:00 | 54.57132 | -5.92824 | 1055 ft | 112 kts | 42° |
| 2026-04-21 20:00 | 54.57761 | -5.92092 | 869 ft | 108 kts | 42° |
| 2026-04-21 20:00 | 54.58368 | -5.91365 | 697 ft | 104 kts | 41° |
| 2026-04-21 20:01 | 54.58958 | -5.90639 | 624 ft | 105 kts | 43° |
| 2026-04-21 20:01 | 54.59544 | -5.89963 | 535 ft | 102 kts | 41° |
| 2026-04-21 20:01 | 54.60108 | -5.89276 | 334 ft | 97 kts | 41° |
| 2026-04-21 20:01 | 54.60679 | -5.88593 | 196 ft | 101 kts | 37° |
| 2026-04-21 20:02 | 54.61261 | -5.87908 | 46 ft | 101 kts | 39° |
| 2026-04-21 20:02 | 54.61726 | -5.87349 | 21 ft | 39 kts | 33° |
| 2026-04-21 20:02 | 54.61831 | -5.87206 | 21 ft | 4 kts | 84° |
| 2026-04-21 20:02 | 54.61780 | -5.87046 | 20 ft | 16 kts | 126° |
| 2026-04-21 20:03 | 54.61706 | -5.87015 | 21 ft | 11 kts | 212° |
| 2026-04-21 20:03 | 54.61684 | -5.87032 | 20 ft | 0 kts | 155° |
| 2026-04-21 20:03 | 54.61669 | -5.87001 | 21 ft | 9 kts | 127° |
| 2026-04-21 20:03 | 54.61658 | -5.86975 | 20 ft | 1 kts | 126° |
| 2026-04-21 20:04 | 54.61654 | -5.86965 | 20 ft | 2 kts | 125° |
| 2026-04-21 20:04 | 54.61653 | -5.86963 | 20 ft | 0 kts | 125° |